Terminal Aerodrome Forecast
Issued by NWS State College, PA

Home | Current Version | Previous Version | Text Only | Print | Product List | Glossary On
Versions: 1 2 3 4 5 6 7 8 9 10 11 12 13 14 15 16 17 18 19 20 21 22 23 24
000
FTUS41 KCTP 121445 AAD
TAFMDT
TAF AMD
KMDT 121445Z 1215/1312 00000KT P6SM SCT080 BKN200 WS020/22035KT
     FM121600 20006KT P6SM OVC050
     FM121900 30015G25KT P6SM BKN080
     FM130200 30020G32KT P6SM SCT100=

USA.gov is the U.S. government's official web portal to all federal, state and local government web resources and services.